»·PEaware :: CGVZB CYOW-CYRO

CGVZB :: CYOW-CYRO

FLIGHT INFORMATION

Flight Status: Arrived
Operator: Unknown
More flights by this operator :: More flights under this callsign
Pilot: Alan S. (10569)
Aircraft: CESSNA 172 SKYHAWK
(C172)
More flights by this aircraft type
Origin: CYOW Ottawa/Macdonald-Cartier Intl
Canada
Destination: CYRO Rockcliffe
Canada
More flights between these airports :: More routes between these airports
Route: CTR7 CTY3 CSD9 CNB5 CNQ5
File this flight plan on PilotEdge
Remarks: twitch.tv / aerosimgaming
Altitude:
(Current/Filed)
2,500ft
Speed:
(Current/Filed)
90kts
Departed: 01-Dec-16 05:45 PM
Arrived: 01-Dec-16 05:56 PM
Distance/Time
Traveled:
13nm/0:10
Distance/Time
To Go:
Arrived

Flight Plot

Page will automatically refresh every two minutes.

Flight plan parsing failed; only flown route is shown


Map Options




Map Legend


Flown Route
Filed Route
Departure Airport
Arrival Airport
Navaid (VOR, NDB)
Fix

Horizontal Profiles

Position Reports

Time Latitude Longitude Heading Altitude Ground
Speed
01-Dec-16 17:13 45.334528 -75.688272 243 344ft 0kts
01-Dec-16 17:14 45.334528 -75.688272 243 344ft 0kts
01-Dec-16 17:15 45.334528 -75.688272 243 344ft 0kts
01-Dec-16 17:16 45.334528 -75.688272 243 344ft 0kts
01-Dec-16 17:17 45.334528 -75.688272 243 344ft 0kts
01-Dec-16 17:18 45.334528 -75.688272 243 344ft 0kts
01-Dec-16 17:19 45.334523 -75.688286 240 344ft 0kts
01-Dec-16 17:20 45.334523 -75.688286 240 344ft 0kts
01-Dec-16 17:21 45.334523 -75.688286 240 344ft 0kts
01-Dec-16 17:22 45.334523 -75.688286 240 344ft 0kts
01-Dec-16 17:23 45.334523 -75.688286 240 344ft 0kts
01-Dec-16 17:24 45.334523 -75.688286 240 344ft 0kts
01-Dec-16 17:25 45.334523 -75.688286 240 344ft 0kts
01-Dec-16 17:26 45.334523 -75.688286 240 344ft 0kts
01-Dec-16 17:27 45.334523 -75.688286 240 344ft 0kts
01-Dec-16 17:28 45.334263 -75.688449 181 344ft 0kts
01-Dec-16 17:29 45.334064 -75.688391 150 344ft 0kts
01-Dec-16 17:30 45.334069 -75.688402 154 344ft 0kts
01-Dec-16 17:31 45.334071 -75.688403 168 344ft 0kts
01-Dec-16 17:32 45.334071 -75.688403 168 344ft 0kts
01-Dec-16 17:33 45.334658 -75.685576 117 344ft 9kts
01-Dec-16 17:34 45.334601 -75.685387 112 344ft 0kts
01-Dec-16 17:35 45.334601 -75.685387 112 344ft 0kts
01-Dec-16 17:36 45.334424 -75.684818 113 344ft 6kts
01-Dec-16 17:37 45.333842 -75.684222 201 344ft 0kts
01-Dec-16 17:38 45.322550 -75.691555 215 661ft 58kts
01-Dec-16 17:39 45.317947 -75.710345 318 891ft 96kts
01-Dec-16 17:40 45.341645 -75.729838 311 928ft 102kts
01-Dec-16 17:41 45.363620 -75.755907 316 948ft 104kts
01-Dec-16 17:42 45.390600 -75.756666 25 1020ft 112kts
01-Dec-16 17:43 45.415196 -75.728185 49 1011ft 115kts
01-Dec-16 17:44 45.438896 -75.700294 20 964ft 110kts
01-Dec-16 17:45 45.458443 -75.669482 75 746ft 115kts
01-Dec-16 17:46 45.461939 -75.626261 100 581ft 108kts
01-Dec-16 17:47 45.469271 -75.599028 293 429ft 67kts
01-Dec-16 17:48 45.468749 -75.622931 253 203ft 55kts
01-Dec-16 17:49 45.466798 -75.633610 26 163ft 3kts
01-Dec-16 17:50 45.461525 -75.637234 258 177ft 0kts
01-Dec-16 17:51 45.461525 -75.637234 258 177ft 0kts
01-Dec-16 17:52 45.461525 -75.637234 258 177ft 0kts
01-Dec-16 17:53 45.461525 -75.637234 258 177ft 0kts
01-Dec-16 17:54 45.461525 -75.637234 258 177ft 0kts
01-Dec-16 17:55 45.460121 -75.647300 259 239ft 62kts
01-Dec-16 17:56 45.457349 -75.673933 274 654ft 78kts
01-Dec-16 17:57 45.457079 -75.696093 266 1053ft 82kts
01-Dec-16 17:58 45.455048 -75.721515 262 1370ft 91kts
01-Dec-16 17:59 45.452015 -75.761543 262 1435ft 107kts
01-Dec-16 18:00 45.449719 -75.804726 267 1441ft 111kts
01-Dec-16 18:01 45.448475 -75.848218 267 1418ft 104kts
01-Dec-16 18:02 45.446076 -75.888357 262 1559ft 97kts
01-Dec-16 18:03 45.434865 -75.923666 240 1563ft 100kts

Navigation Log

Ident Type
Flight plan parsing failed, navigation log unavailable